sensor_id;sensor_type;location;lat;lon;timestamp;P1;durP1;ratioP1;P2;durP2;ratioP2
64011;SDS011;50211;52.768;12.124;2022-09-17T00:01:07;6.25;;;1.25;;
64011;SDS011;50211;52.768;12.124;2022-09-17T00:03:39;8.60;;;1.60;;
64011;SDS011;50211;52.768;12.124;2022-09-17T00:06:08;5.30;;;1.60;;
64011;SDS011;50211;52.768;12.124;2022-09-17T00:08:36;5.43;;;1.80;;
64011;SDS011;50211;52.768;12.124;2022-09-17T00:11:10;5.90;;;1.50;;
64011;SDS011;50211;52.768;12.124;2022-09-17T00:13:39;8.85;;;2.17;;
64011;SDS011;50211;52.768;12.124;2022-09-17T00:16:05;7.55;;;2.30;;
64011;SDS011;50211;52.768;12.124;2022-09-17T00:18:31;8.15;;;1.40;;
64011;SDS011;50211;52.768;12.124;2022-09-17T00:20:57;5.68;;;1.60;;
64011;SDS011;50211;52.768;12.124;2022-09-17T00:23:23;10.35;;;2.08;;
64011;SDS011;50211;52.768;12.124;2022-09-17T00:25:48;6.78;;;1.90;;
64011;SDS011;50211;52.768;12.124;2022-09-17T00:28:14;12.65;;;1.75;;
64011;SDS011;50211;52.768;12.124;2022-09-17T00:30:41;6.15;;;1.60;;
64011;SDS011;50211;52.768;12.124;2022-09-17T00:33:08;6.95;;;1.65;;
64011;SDS011;50211;52.768;12.124;2022-09-17T00:35:36;12.68;;;1.70;;
64011;SDS011;50211;52.768;12.124;2022-09-17T00:38:02;7.28;;;1.88;;
64011;SDS011;50211;52.768;12.124;2022-09-17T00:40:28;8.00;;;2.05;;
64011;SDS011;50211;52.768;12.124;2022-09-17T00:42:53;7.25;;;2.08;;
64011;SDS011;50211;52.768;12.124;2022-09-17T00:45:19;8.05;;;1.52;;
64011;SDS011;50211;52.768;12.124;2022-09-17T00:47:45;8.45;;;2.35;;
64011;SDS011;50211;52.768;12.124;2022-09-17T00:50:29;7.53;;;1.65;;
64011;SDS011;50211;52.768;12.124;2022-09-17T00:53:00;8.05;;;1.83;;
64011;SDS011;50211;52.768;12.124;2022-09-17T00:55:38;8.37;;;1.83;;
64011;SDS011;50211;52.768;12.124;2022-09-17T00:58:08;5.65;;;1.65;;
64011;SDS011;50211;52.768;12.124;2022-09-17T01:00:36;5.05;;;1.40;;
64011;SDS011;50211;52.768;12.124;2022-09-17T01:03:02;11.20;;;2.10;;
64011;SDS011;50211;52.768;12.124;2022-09-17T01:05:47;4.03;;;1.50;;
64011;SDS011;50211;52.768;12.124;2022-09-17T01:11:39;9.45;;;2.38;;
64011;SDS011;50211;52.768;12.124;2022-09-17T01:14:30;6.68;;;1.75;;
64011;SDS011;50211;52.768;12.124;2022-09-17T01:17:43;8.55;;;1.90;;
64011;SDS011;50211;52.768;12.124;2022-09-17T01:20:25;9.82;;;1.90;;
64011;SDS011;50211;52.768;12.124;2022-09-17T01:23:29;5.90;;;1.75;;
64011;SDS011;50211;52.768;12.124;2022-09-17T01:26:44;8.18;;;1.90;;
64011;SDS011;50211;52.768;12.124;2022-09-17T01:37:58;11.43;;;2.20;;
64011;SDS011;50211;52.768;12.124;2022-09-17T01:40:47;9.80;;;2.10;;
64011;SDS011;50211;52.768;12.124;2022-09-17T01:43:32;4.43;;;1.70;;
64011;SDS011;50211;52.768;12.124;2022-09-17T01:46:06;8.60;;;2.50;;
64011;SDS011;50211;52.768;12.124;2022-09-17T01:48:52;7.57;;;1.73;;
64011;SDS011;50211;52.768;12.124;2022-09-17T01:51:23;5.95;;;2.15;;
64011;SDS011;50211;52.768;12.124;2022-09-17T01:53:52;8.80;;;1.90;;
64011;SDS011;50211;52.768;12.124;2022-09-17T01:56:24;7.72;;;1.80;;
64011;SDS011;50211;52.768;12.124;2022-09-17T01:59:06;7.38;;;1.83;;
64011;SDS011;50211;52.768;12.124;2022-09-17T02:01:38;6.93;;;1.70;;
64011;SDS011;50211;52.768;12.124;2022-09-17T02:04:17;9.05;;;2.50;;
64011;SDS011;50211;52.768;12.124;2022-09-17T02:06:54;6.65;;;1.65;;
64011;SDS011;50211;52.768;12.124;2022-09-17T02:09:29;7.78;;;2.10;;
64011;SDS011;50211;52.768;12.124;2022-09-17T02:12:00;5.07;;;1.83;;
64011;SDS011;50211;52.768;12.124;2022-09-17T02:14:32;10.05;;;2.05;;
64011;SDS011;50211;52.768;12.124;2022-09-17T02:17:04;9.90;;;1.85;;
64011;SDS011;50211;52.768;12.124;2022-09-17T02:19:35;13.30;;;2.03;;
64011;SDS011;50211;52.768;12.124;2022-09-17T02:22:18;5.32;;;2.30;;
64011;SDS011;50211;52.768;12.124;2022-09-17T02:24:51;8.00;;;2.35;;
64011;SDS011;50211;52.768;12.124;2022-09-17T02:30:08;9.82;;;2.15;;
64011;SDS011;50211;52.768;12.124;2022-09-17T02:32:34;6.78;;;1.77;;
64011;SDS011;50211;52.768;12.124;2022-09-17T02:35:00;7.13;;;2.67;;
64011;SDS011;50211;52.768;12.124;2022-09-17T02:37:27;7.10;;;2.30;;
64011;SDS011;50211;52.768;12.124;2022-09-17T02:39:53;11.25;;;1.98;;
64011;SDS011;50211;52.768;12.124;2022-09-17T02:42:22;11.23;;;2.25;;
64011;SDS011;50211;52.768;12.124;2022-09-17T02:52:46;12.27;;;2.55;;
64011;SDS011;50211;52.768;12.124;2022-09-17T02:55:28;7.85;;;2.05;;
64011;SDS011;50211;52.768;12.124;2022-09-17T03:00:49;9.50;;;2.38;;
64011;SDS011;50211;52.768;12.124;2022-09-17T03:03:18;7.10;;;2.60;;
64011;SDS011;50211;52.768;12.124;2022-09-17T03:05:47;11.00;;;2.95;;
64011;SDS011;50211;52.768;12.124;2022-09-17T03:08:13;6.38;;;2.35;;
64011;SDS011;50211;52.768;12.124;2022-09-17T03:10:44;10.88;;;2.13;;
64011;SDS011;50211;52.768;12.124;2022-09-17T03:13:10;10.50;;;2.22;;
64011;SDS011;50211;52.768;12.124;2022-09-17T03:15:35;8.80;;;2.03;;
64011;SDS011;50211;52.768;12.124;2022-09-17T03:18:01;8.63;;;2.17;;
64011;SDS011;50211;52.768;12.124;2022-09-17T03:20:26;9.88;;;2.60;;
64011;SDS011;50211;52.768;12.124;2022-09-17T03:22:52;13.23;;;2.67;;
64011;SDS011;50211;52.768;12.124;2022-09-17T03:25:17;9.13;;;2.35;;
64011;SDS011;50211;52.768;12.124;2022-09-17T03:27:43;10.20;;;2.65;;
64011;SDS011;50211;52.768;12.124;2022-09-17T03:30:08;6.97;;;2.70;;
64011;SDS011;50211;52.768;12.124;2022-09-17T03:32:34;10.13;;;2.60;;
64011;SDS011;50211;52.768;12.124;2022-09-17T03:35:00;9.43;;;2.38;;
64011;SDS011;50211;52.768;12.124;2022-09-17T03:37:26;8.18;;;2.95;;
64011;SDS011;50211;52.768;12.124;2022-09-17T03:39:51;12.60;;;2.55;;
64011;SDS011;50211;52.768;12.124;2022-09-17T03:42:17;7.20;;;2.53;;
64011;SDS011;50211;52.768;12.124;2022-09-17T03:44:42;14.30;;;3.50;;
64011;SDS011;50211;52.768;12.124;2022-09-17T03:47:08;15.75;;;3.42;;
64011;SDS011;50211;52.768;12.124;2022-09-17T03:49:33;14.90;;;3.08;;
64011;SDS011;50211;52.768;12.124;2022-09-17T03:52:01;14.73;;;2.88;;
64011;SDS011;50211;52.768;12.124;2022-09-17T03:54:27;15.63;;;2.95;;
64011;SDS011;50211;52.768;12.124;2022-09-17T03:56:52;14.13;;;2.58;;
64011;SDS011;50211;52.768;12.124;2022-09-17T03:59:18;18.70;;;3.65;;
64011;SDS011;50211;52.768;12.124;2022-09-17T04:01:43;12.15;;;2.88;;
64011;SDS011;50211;52.768;12.124;2022-09-17T04:04:09;16.40;;;3.67;;
64011;SDS011;50211;52.768;12.124;2022-09-17T04:06:34;9.52;;;2.97;;
64011;SDS011;50211;52.768;12.124;2022-09-17T04:09:00;12.95;;;2.75;;
64011;SDS011;50211;52.768;12.124;2022-09-17T04:11:27;10.32;;;2.92;;
64011;SDS011;50211;52.768;12.124;2022-09-17T04:13:53;10.73;;;2.63;;
64011;SDS011;50211;52.768;12.124;2022-09-17T04:16:18;14.45;;;2.92;;
64011;SDS011;50211;52.768;12.124;2022-09-17T04:18:46;11.57;;;2.63;;
64011;SDS011;50211;52.768;12.124;2022-09-17T04:21:11;17.23;;;2.97;;
64011;SDS011;50211;52.768;12.124;2022-09-17T04:23:38;14.00;;;2.58;;
64011;SDS011;50211;52.768;12.124;2022-09-17T04:26:03;15.55;;;3.63;;
64011;SDS011;50211;52.768;12.124;2022-09-17T04:28:29;11.68;;;3.00;;
64011;SDS011;50211;52.768;12.124;2022-09-17T04:30:55;9.00;;;2.70;;
64011;SDS011;50211;52.768;12.124;2022-09-17T04:33:21;15.55;;;3.28;;
64011;SDS011;50211;52.768;12.124;2022-09-17T04:35:47;28.27;;;3.20;;
64011;SDS011;50211;52.768;12.124;2022-09-17T04:38:13;9.00;;;3.15;;
64011;SDS011;50211;52.768;12.124;2022-09-17T04:40:42;15.15;;;3.33;;
64011;SDS011;50211;52.768;12.124;2022-09-17T04:43:08;18.35;;;3.15;;
64011;SDS011;50211;52.768;12.124;2022-09-17T04:45:34;24.05;;;11.75;;
64011;SDS011;50211;52.768;12.124;2022-09-17T04:48:00;14.85;;;3.17;;
64011;SDS011;50211;52.768;12.124;2022-09-17T04:50:26;19.73;;;5.43;;
64011;SDS011;50211;52.768;12.124;2022-09-17T04:52:52;15.93;;;2.92;;
64011;SDS011;50211;52.768;12.124;2022-09-17T04:55:17;14.57;;;2.63;;
64011;SDS011;50211;52.768;12.124;2022-09-17T04:57:50;11.45;;;2.55;;
64011;SDS011;50211;52.768;12.124;2022-09-17T05:00:17;11.48;;;2.22;;
64011;SDS011;50211;52.768;12.124;2022-09-17T05:02:47;19.25;;;2.53;;
64011;SDS011;50211;52.768;12.124;2022-09-17T05:05:14;14.82;;;2.83;;
64011;SDS011;50211;52.768;12.124;2022-09-17T05:07:41;12.43;;;1.90;;
64011;SDS011;50211;52.768;12.124;2022-09-17T05:10:07;12.45;;;2.17;;
64011;SDS011;50211;52.768;12.124;2022-09-17T05:12:33;10.27;;;2.08;;
64011;SDS011;50211;52.768;12.124;2022-09-17T05:14:58;14.20;;;3.90;;
64011;SDS011;50211;52.768;12.124;2022-09-17T05:17:24;15.02;;;3.03;;
64011;SDS011;50211;52.768;12.124;2022-09-17T05:19:51;12.25;;;3.35;;
64011;SDS011;50211;52.768;12.124;2022-09-17T05:22:19;14.77;;;4.22;;
64011;SDS011;50211;52.768;12.124;2022-09-17T05:24:45;18.00;;;3.20;;
64011;SDS011;50211;52.768;12.124;2022-09-17T05:27:11;15.55;;;4.03;;
64011;SDS011;50211;52.768;12.124;2022-09-17T05:29:36;8.35;;;3.00;;
64011;SDS011;50211;52.768;12.124;2022-09-17T05:32:04;10.10;;;2.45;;
64011;SDS011;50211;52.768;12.124;2022-09-17T05:34:30;11.40;;;1.98;;
64011;SDS011;50211;52.768;12.124;2022-09-17T05:36:56;7.53;;;2.20;;
64011;SDS011;50211;52.768;12.124;2022-09-17T05:39:21;12.27;;;1.90;;
64011;SDS011;50211;52.768;12.124;2022-09-17T05:41:49;9.38;;;1.90;;
64011;SDS011;50211;52.768;12.124;2022-09-17T05:44:19;13.88;;;2.42;;
64011;SDS011;50211;52.768;12.124;2022-09-17T05:46:45;13.05;;;1.77;;
64011;SDS011;50211;52.768;12.124;2022-09-17T05:49:11;18.75;;;2.13;;
64011;SDS011;50211;52.768;12.124;2022-09-17T05:51:39;13.45;;;2.78;;
64011;SDS011;50211;52.768;12.124;2022-09-17T05:54:05;12.88;;;3.13;;
64011;SDS011;50211;52.768;12.124;2022-09-17T05:56:31;11.77;;;2.40;;
64011;SDS011;50211;52.768;12.124;2022-09-17T05:58:56;6.65;;;1.65;;
64011;SDS011;50211;52.768;12.124;2022-09-17T06:01:22;12.20;;;2.05;;
64011;SDS011;50211;52.768;12.124;2022-09-17T06:03:48;12.68;;;2.20;;
64011;SDS011;50211;52.768;12.124;2022-09-17T06:06:14;9.23;;;2.05;;
64011;SDS011;50211;52.768;12.124;2022-09-17T06:08:40;9.43;;;1.73;;
64011;SDS011;50211;52.768;12.124;2022-09-17T06:11:05;13.32;;;2.03;;
64011;SDS011;50211;52.768;12.124;2022-09-17T06:13:31;10.18;;;1.80;;
64011;SDS011;50211;52.768;12.124;2022-09-17T06:15:57;6.35;;;1.50;;
64011;SDS011;50211;52.768;12.124;2022-09-17T06:18:23;8.32;;;2.08;;
64011;SDS011;50211;52.768;12.124;2022-09-17T06:20:56;8.32;;;2.65;;
64011;SDS011;50211;52.768;12.124;2022-09-17T06:23:23;7.07;;;1.85;;
64011;SDS011;50211;52.768;12.124;2022-09-17T06:25:52;9.88;;;1.75;;
64011;SDS011;50211;52.768;12.124;2022-09-17T06:28:22;11.52;;;1.70;;
64011;SDS011;50211;52.768;12.124;2022-09-17T06:30:49;9.07;;;1.88;;
64011;SDS011;50211;52.768;12.124;2022-09-17T06:33:20;11.98;;;2.28;;
64011;SDS011;50211;52.768;12.124;2022-09-17T06:35:46;7.50;;;1.42;;
64011;SDS011;50211;52.768;12.124;2022-09-17T06:38:12;8.00;;;1.67;;
64011;SDS011;50211;52.768;12.124;2022-09-17T06:40:37;12.15;;;2.05;;
64011;SDS011;50211;52.768;12.124;2022-09-17T06:43:03;8.73;;;2.33;;
64011;SDS011;50211;52.768;12.124;2022-09-17T06:45:29;11.32;;;1.90;;
64011;SDS011;50211;52.768;12.124;2022-09-17T06:47:54;11.27;;;1.70;;
64011;SDS011;50211;52.768;12.124;2022-09-17T06:50:20;7.72;;;2.15;;
64011;SDS011;50211;52.768;12.124;2022-09-17T06:52:49;17.25;;;2.00;;
64011;SDS011;50211;52.768;12.124;2022-09-17T06:55:16;8.57;;;1.85;;
64011;SDS011;50211;52.768;12.124;2022-09-17T06:57:44;10.70;;;2.17;;
64011;SDS011;50211;52.768;12.124;2022-09-17T07:00:10;5.90;;;1.73;;
64011;SDS011;50211;52.768;12.124;2022-09-17T07:02:39;11.70;;;1.92;;
64011;SDS011;50211;52.768;12.124;2022-09-17T07:05:05;7.70;;;1.38;;
64011;SDS011;50211;52.768;12.124;2022-09-17T07:07:31;8.70;;;1.98;;
64011;SDS011;50211;52.768;12.124;2022-09-17T07:09:59;9.73;;;1.90;;
64011;SDS011;50211;52.768;12.124;2022-09-17T07:12:25;10.77;;;1.70;;
64011;SDS011;50211;52.768;12.124;2022-09-17T07:14:51;8.27;;;2.05;;
64011;SDS011;50211;52.768;12.124;2022-09-17T07:17:18;5.85;;;1.65;;
64011;SDS011;50211;52.768;12.124;2022-09-17T07:19:46;8.30;;;2.45;;
64011;SDS011;50211;52.768;12.124;2022-09-17T07:22:11;11.65;;;2.08;;
64011;SDS011;50211;52.768;12.124;2022-09-17T07:24:38;10.20;;;1.98;;
64011;SDS011;50211;52.768;12.124;2022-09-17T07:27:03;9.15;;;1.63;;
64011;SDS011;50211;52.768;12.124;2022-09-17T07:29:29;7.53;;;1.92;;
64011;SDS011;50211;52.768;12.124;2022-09-17T07:31:57;6.28;;;1.20;;
64011;SDS011;50211;52.768;12.124;2022-09-17T07:34:25;9.15;;;1.33;;
64011;SDS011;50211;52.768;12.124;2022-09-17T07:36:52;7.75;;;1.60;;
64011;SDS011;50211;52.768;12.124;2022-09-17T07:39:18;10.35;;;2.85;;
64011;SDS011;50211;52.768;12.124;2022-09-17T07:41:46;8.00;;;1.33;;
64011;SDS011;50211;52.768;12.124;2022-09-17T07:44:11;8.32;;;1.58;;
64011;SDS011;50211;52.768;12.124;2022-09-17T07:46:36;8.00;;;1.35;;
64011;SDS011;50211;52.768;12.124;2022-09-17T07:49:02;6.90;;;1.88;;
64011;SDS011;50211;52.768;12.124;2022-09-17T07:51:27;9.10;;;1.83;;
64011;SDS011;50211;52.768;12.124;2022-09-17T07:53:54;7.97;;;1.83;;
64011;SDS011;50211;52.768;12.124;2022-09-17T07:56:23;5.68;;;1.88;;
64011;SDS011;50211;52.768;12.124;2022-09-17T07:58:52;9.32;;;1.73;;
64011;SDS011;50211;52.768;12.124;2022-09-17T08:01:18;6.85;;;1.08;;
64011;SDS011;50211;52.768;12.124;2022-09-17T08:03:47;3.92;;;1.20;;
64011;SDS011;50211;52.768;12.124;2022-09-17T08:06:17;6.55;;;1.50;;
64011;SDS011;50211;52.768;12.124;2022-09-17T08:08:45;6.90;;;1.38;;
64011;SDS011;50211;52.768;12.124;2022-09-17T08:11:14;3.38;;;1.17;;
64011;SDS011;50211;52.768;12.124;2022-09-17T08:13:41;6.13;;;1.77;;
64011;SDS011;50211;52.768;12.124;2022-09-17T08:16:08;11.68;;;1.33;;
64011;SDS011;50211;52.768;12.124;2022-09-17T08:18:37;6.22;;;1.42;;
64011;SDS011;50211;52.768;12.124;2022-09-17T08:21:03;8.45;;;1.80;;
64011;SDS011;50211;52.768;12.124;2022-09-17T08:23:30;6.93;;;1.20;;
64011;SDS011;50211;52.768;12.124;2022-09-17T08:25:59;7.65;;;1.52;;
64011;SDS011;50211;52.768;12.124;2022-09-17T08:28:26;3.88;;;1.50;;
64011;SDS011;50211;52.768;12.124;2022-09-17T08:30:58;7.03;;;1.42;;
64011;SDS011;50211;52.768;12.124;2022-09-17T08:33:32;9.05;;;1.67;;
64011;SDS011;50211;52.768;12.124;2022-09-17T08:35:58;10.07;;;1.40;;
64011;SDS011;50211;52.768;12.124;2022-09-17T08:38:27;6.15;;;1.35;;
64011;SDS011;50211;52.768;12.124;2022-09-17T08:40:55;5.65;;;1.30;;
64011;SDS011;50211;52.768;12.124;2022-09-17T08:43:32;12.80;;;1.92;;
64011;SDS011;50211;52.768;12.124;2022-09-17T08:45:59;7.80;;;1.13;;
64011;SDS011;50211;52.768;12.124;2022-09-17T08:48:26;10.55;;;1.75;;
64011;SDS011;50211;52.768;12.124;2022-09-17T08:51:02;4.43;;;1.15;;
64011;SDS011;50211;52.768;12.124;2022-09-17T08:53:45;8.77;;;1.50;;
64011;SDS011;50211;52.768;12.124;2022-09-17T08:56:25;8.85;;;1.42;;
64011;SDS011;50211;52.768;12.124;2022-09-17T08:58:56;8.50;;;2.03;;
64011;SDS011;50211;52.768;12.124;2022-09-17T09:04:34;5.82;;;1.33;;
64011;SDS011;50211;52.768;12.124;2022-09-17T09:07:24;9.40;;;1.65;;
64011;SDS011;50211;52.768;12.124;2022-09-17T09:12:38;7.18;;;1.50;;
64011;SDS011;50211;52.768;12.124;2022-09-17T09:17:40;11.25;;;2.00;;
64011;SDS011;50211;52.768;12.124;2022-09-17T09:20:13;5.82;;;1.45;;
64011;SDS011;50211;52.768;12.124;2022-09-17T09:23:32;6.28;;;1.25;;
64011;SDS011;50211;52.768;12.124;2022-09-17T09:25:54;8.30;;;1.80;;
64011;SDS011;50211;52.768;12.124;2022-09-17T09:28:40;9.07;;;1.65;;
64011;SDS011;50211;52.768;12.124;2022-09-17T09:33:51;5.82;;;1.33;;
64011;SDS011;50211;52.768;12.124;2022-09-17T09:36:17;13.93;;;1.58;;
64011;SDS011;50211;52.768;12.124;2022-09-17T09:41:17;8.10;;;1.40;;
64011;SDS011;50211;52.768;12.124;2022-09-17T09:44:00;7.47;;;1.75;;
64011;SDS011;50211;52.768;12.124;2022-09-17T09:49:23;5.32;;;1.08;;
64011;SDS011;50211;52.768;12.124;2022-09-17T09:54:50;6.22;;;1.23;;
64011;SDS011;50211;52.768;12.124;2022-09-17T10:03:05;5.53;;;1.00;;
64011;SDS011;50211;52.768;12.124;2022-09-17T10:05:48;4.80;;;1.38;;
64011;SDS011;50211;52.768;12.124;2022-09-17T10:08:26;6.32;;;1.40;;
64011;SDS011;50211;52.768;12.124;2022-09-17T10:10:54;6.43;;;0.95;;
64011;SDS011;50211;52.768;12.124;2022-09-17T10:13:22;6.95;;;1.25;;
64011;SDS011;50211;52.768;12.124;2022-09-17T10:15:48;6.45;;;1.30;;
64011;SDS011;50211;52.768;12.124;2022-09-17T10:18:18;6.28;;;1.23;;
64011;SDS011;50211;52.768;12.124;2022-09-17T10:23:21;5.55;;;1.15;;
64011;SDS011;50211;52.768;12.124;2022-09-17T10:25:49;6.32;;;1.27;;
64011;SDS011;50211;52.768;12.124;2022-09-17T10:28:23;7.72;;;0.80;;
64011;SDS011;50211;52.768;12.124;2022-09-17T10:31:10;6.78;;;1.10;;
64011;SDS011;50211;52.768;12.124;2022-09-17T10:33:49;7.15;;;1.35;;
64011;SDS011;50211;52.768;12.124;2022-09-17T10:36:38;5.32;;;1.00;;
64011;SDS011;50211;52.768;12.124;2022-09-17T10:39:17;3.33;;;0.85;;
64011;SDS011;50211;52.768;12.124;2022-09-17T10:44:35;4.30;;;1.00;;
64011;SDS011;50211;52.768;12.124;2022-09-17T10:47:03;6.25;;;1.30;;
64011;SDS011;50211;52.768;12.124;2022-09-17T10:49:47;3.42;;;1.00;;
64011;SDS011;50211;52.768;12.124;2022-09-17T10:52:28;2.40;;;0.95;;
64011;SDS011;50211;52.768;12.124;2022-09-17T11:00:50;3.20;;;0.80;;
64011;SDS011;50211;52.768;12.124;2022-09-17T11:03:46;8.73;;;1.05;;
64011;SDS011;50211;52.768;12.124;2022-09-17T11:06:42;3.17;;;0.93;;
64011;SDS011;50211;52.768;12.124;2022-09-17T11:09:26;11.20;;;1.05;;
64011;SDS011;50211;52.768;12.124;2022-09-17T11:12:04;5.90;;;0.98;;
64011;SDS011;50211;52.768;12.124;2022-09-17T11:14:49;2.95;;;0.98;;
64011;SDS011;50211;52.768;12.124;2022-09-17T11:32:29;5.22;;;1.00;;
64011;SDS011;50211;52.768;12.124;2022-09-17T11:35:08;2.13;;;0.82;;
64011;SDS011;50211;52.768;12.124;2022-09-17T11:37:41;8.48;;;0.90;;
64011;SDS011;50211;52.768;12.124;2022-09-17T11:40:14;4.72;;;0.80;;
64011;SDS011;50211;52.768;12.124;2022-09-17T11:43:11;5.20;;;1.15;;
64011;SDS011;50211;52.768;12.124;2022-09-17T11:45:54;1.67;;;0.73;;
64011;SDS011;50211;52.768;12.124;2022-09-17T11:48:33;5.22;;;1.02;;
64011;SDS011;50211;52.768;12.124;2022-09-17T11:51:06;5.53;;;0.85;;
64011;SDS011;50211;52.768;12.124;2022-09-17T11:53:45;3.05;;;0.90;;
64011;SDS011;50211;52.768;12.124;2022-09-17T11:56:35;4.13;;;1.25;;
64011;SDS011;50211;52.768;12.124;2022-09-17T12:01:47;2.65;;;0.93;;
64011;SDS011;50211;52.768;12.124;2022-09-17T12:04:32;5.85;;;1.05;;
64011;SDS011;50211;52.768;12.124;2022-09-17T12:07:36;4.45;;;1.00;;
64011;SDS011;50211;52.768;12.124;2022-09-17T12:10:17;6.13;;;1.20;;
64011;SDS011;50211;52.768;12.124;2022-09-17T12:13:02;10.23;;;1.27;;
64011;SDS011;50211;52.768;12.124;2022-09-17T12:15:44;3.78;;;0.88;;
64011;SDS011;50211;52.768;12.124;2022-09-17T12:21:17;1.40;;;0.75;;
64011;SDS011;50211;52.768;12.124;2022-09-17T12:23:53;3.60;;;0.80;;
64011;SDS011;50211;52.768;12.124;2022-09-17T12:26:50;4.28;;;0.80;;
64011;SDS011;50211;52.768;12.124;2022-09-17T12:35:27;3.88;;;0.98;;
64011;SDS011;50211;52.768;12.124;2022-09-17T12:41:14;5.22;;;1.20;;
64011;SDS011;50211;52.768;12.124;2022-09-17T12:52:06;3.30;;;0.40;;
64011;SDS011;50211;52.768;12.124;2022-09-17T12:55:47;0.20;;;0.20;;
64011;SDS011;50211;52.768;12.124;2022-09-17T13:01:37;1.45;;;0.30;;
64011;SDS011;50211;52.768;12.124;2022-09-17T13:18:30;1.35;;;0.70;;
64011;SDS011;50211;52.768;12.124;2022-09-17T13:21:07;0.52;;;0.50;;
64011;SDS011;50211;52.768;12.124;2022-09-17T13:23:38;1.25;;;0.65;;
64011;SDS011;50211;52.768;12.124;2022-09-17T13:26:09;0.57;;;0.40;;
64011;SDS011;50211;52.768;12.124;2022-09-17T13:28:45;5.72;;;0.55;;
64011;SDS011;50211;52.768;12.124;2022-09-17T13:31:12;1.65;;;0.47;;
64011;SDS011;50211;52.768;12.124;2022-09-17T13:33:48;2.20;;;0.40;;
64011;SDS011;50211;52.768;12.124;2022-09-17T13:42:13;2.60;;;1.00;;
64011;SDS011;50211;52.768;12.124;2022-09-17T13:44:40;0.50;;;0.40;;
64011;SDS011;50211;52.768;12.124;2022-09-17T13:47:14;0.43;;;0.38;;
64011;SDS011;50211;52.768;12.124;2022-09-17T13:49:43;4.82;;;0.50;;
64011;SDS011;50211;52.768;12.124;2022-09-17T13:52:27;0.73;;;0.40;;
64011;SDS011;50211;52.768;12.124;2022-09-17T13:54:56;1.17;;;0.43;;
64011;SDS011;50211;52.768;12.124;2022-09-17T13:57:22;2.70;;;0.90;;
64011;SDS011;50211;52.768;12.124;2022-09-17T13:59:51;2.95;;;0.40;;
64011;SDS011;50211;52.768;12.124;2022-09-17T14:02:29;0.30;;;0.30;;
64011;SDS011;50211;52.768;12.124;2022-09-17T14:07:48;2.65;;;0.47;;
64011;SDS011;50211;52.768;12.124;2022-09-17T14:20:54;0.60;;;0.40;;
64011;SDS011;50211;52.768;12.124;2022-09-17T14:23:30;1.75;;;0.30;;
64011;SDS011;50211;52.768;12.124;2022-09-17T14:25:58;2.40;;;0.60;;
64011;SDS011;50211;52.768;12.124;2022-09-17T14:31:12;18.02;;;8.57;;
64011;SDS011;50211;52.768;12.124;2022-09-17T14:33:42;19.75;;;9.25;;
64011;SDS011;50211;52.768;12.124;2022-09-17T14:36:09;1.77;;;1.05;;
64011;SDS011;50211;52.768;12.124;2022-09-17T14:38:57;2.05;;;0.73;;
64011;SDS011;50211;52.768;12.124;2022-09-17T14:41:24;5.68;;;3.47;;
64011;SDS011;50211;52.768;12.124;2022-09-17T14:43:56;2.22;;;0.80;;
64011;SDS011;50211;52.768;12.124;2022-09-17T14:46:29;2.78;;;0.75;;
64011;SDS011;50211;52.768;12.124;2022-09-17T14:51:50;3.08;;;0.77;;
64011;SDS011;50211;52.768;12.124;2022-09-17T14:54:18;0.93;;;0.60;;
64011;SDS011;50211;52.768;12.124;2022-09-17T14:56:55;2.15;;;0.52;;
64011;SDS011;50211;52.768;12.124;2022-09-17T14:59:36;3.47;;;0.80;;
64011;SDS011;50211;52.768;12.124;2022-09-17T15:03:02;3.53;;;0.63;;
64011;SDS011;50211;52.768;12.124;2022-09-17T15:10:35;1.52;;;0.50;;
64011;SDS011;50211;52.768;12.124;2022-09-17T15:13:13;3.17;;;0.70;;
64011;SDS011;50211;52.768;12.124;2022-09-17T15:15:58;4.20;;;0.63;;
64011;SDS011;50211;52.768;12.124;2022-09-17T15:18:36;3.55;;;0.90;;
64011;SDS011;50211;52.768;12.124;2022-09-17T15:21:09;1.65;;;0.55;;
64011;SDS011;50211;52.768;12.124;2022-09-17T15:23:44;3.22;;;0.70;;
64011;SDS011;50211;52.768;12.124;2022-09-17T15:26:12;0.40;;;0.40;;
64011;SDS011;50211;52.768;12.124;2022-09-17T15:28:41;1.98;;;0.80;;
64011;SDS011;50211;52.768;12.124;2022-09-17T15:31:13;1.00;;;0.50;;
64011;SDS011;50211;52.768;12.124;2022-09-17T15:33:43;2.78;;;0.93;;
64011;SDS011;50211;52.768;12.124;2022-09-17T15:36:19;1.83;;;0.73;;
64011;SDS011;50211;52.768;12.124;2022-09-17T15:38:46;4.60;;;0.70;;
64011;SDS011;50211;52.768;12.124;2022-09-17T15:41:29;4.20;;;0.90;;
64011;SDS011;50211;52.768;12.124;2022-09-17T15:44:05;3.38;;;0.82;;
64011;SDS011;50211;52.768;12.124;2022-09-17T15:46:52;2.03;;;0.65;;
64011;SDS011;50211;52.768;12.124;2022-09-17T15:49:25;1.83;;;0.82;;
64011;SDS011;50211;52.768;12.124;2022-09-17T15:51:51;3.45;;;0.70;;
64011;SDS011;50211;52.768;12.124;2022-09-17T15:54:27;2.85;;;0.93;;
64011;SDS011;50211;52.768;12.124;2022-09-17T15:56:55;4.70;;;0.50;;
64011;SDS011;50211;52.768;12.124;2022-09-17T15:59:28;6.05;;;1.50;;
64011;SDS011;50211;52.768;12.124;2022-09-17T16:01:56;3.47;;;0.82;;
64011;SDS011;50211;52.768;12.124;2022-09-17T16:04:24;1.25;;;0.80;;
64011;SDS011;50211;52.768;12.124;2022-09-17T16:06:52;4.07;;;1.60;;
64011;SDS011;50211;52.768;12.124;2022-09-17T16:12:21;2.35;;;0.90;;
64011;SDS011;50211;52.768;12.124;2022-09-17T16:14:50;1.13;;;0.77;;
64011;SDS011;50211;52.768;12.124;2022-09-17T16:20:11;2.70;;;1.80;;
64011;SDS011;50211;52.768;12.124;2022-09-17T16:22:38;1.13;;;0.52;;
64011;SDS011;50211;52.768;12.124;2022-09-17T16:25:04;3.47;;;0.70;;
64011;SDS011;50211;52.768;12.124;2022-09-17T16:27:31;5.75;;;1.65;;
64011;SDS011;50211;52.768;12.124;2022-09-17T16:30:06;2.78;;;1.40;;
64011;SDS011;50211;52.768;12.124;2022-09-17T16:32:33;3.78;;;1.98;;
64011;SDS011;50211;52.768;12.124;2022-09-17T16:34:59;6.22;;;2.20;;
64011;SDS011;50211;52.768;12.124;2022-09-17T16:37:24;4.53;;;1.17;;
64011;SDS011;50211;52.768;12.124;2022-09-17T16:39:50;4.70;;;0.90;;
64011;SDS011;50211;52.768;12.124;2022-09-17T16:42:16;7.13;;;2.83;;
64011;SDS011;50211;52.768;12.124;2022-09-17T16:44:44;14.35;;;5.82;;
64011;SDS011;50211;52.768;12.124;2022-09-17T16:47:10;9.23;;;4.15;;
64011;SDS011;50211;52.768;12.124;2022-09-17T16:49:35;9.20;;;5.80;;
64011;SDS011;50211;52.768;12.124;2022-09-17T16:52:01;9.80;;;3.60;;
64011;SDS011;50211;52.768;12.124;2022-09-17T16:54:27;3.95;;;1.10;;
64011;SDS011;50211;52.768;12.124;2022-09-17T16:56:53;4.15;;;1.00;;
64011;SDS011;50211;52.768;12.124;2022-09-17T16:59:19;3.67;;;1.27;;
64011;SDS011;50211;52.768;12.124;2022-09-17T17:01:45;1.05;;;0.60;;
64011;SDS011;50211;52.768;12.124;2022-09-17T17:04:13;2.28;;;0.73;;
64011;SDS011;50211;52.768;12.124;2022-09-17T17:06:41;4.70;;;1.10;;
64011;SDS011;50211;52.768;12.124;2022-09-17T17:09:06;5.68;;;1.05;;
64011;SDS011;50211;52.768;12.124;2022-09-17T17:11:32;3.97;;;0.88;;
64011;SDS011;50211;52.768;12.124;2022-09-17T17:13:58;2.45;;;0.82;;
64011;SDS011;50211;52.768;12.124;2022-09-17T17:16:25;3.53;;;1.00;;
64011;SDS011;50211;52.768;12.124;2022-09-17T17:18:50;3.05;;;1.10;;
64011;SDS011;50211;52.768;12.124;2022-09-17T17:21:17;2.42;;;0.80;;
64011;SDS011;50211;52.768;12.124;2022-09-17T17:23:43;2.60;;;1.05;;
64011;SDS011;50211;52.768;12.124;2022-09-17T17:26:11;3.95;;;1.17;;
64011;SDS011;50211;52.768;12.124;2022-09-17T17:28:36;4.18;;;0.95;;